createdAt,value
2018-08-11T00:00:41.041Z,90.90
2018-08-11T00:03:07.777Z,91.10
2018-08-11T00:05:34.580Z,91.10
2018-08-11T00:08:01.301Z,91.10
2018-08-11T00:10:28.761Z,91.10
2018-08-11T00:12:56.337Z,91.00
2018-08-11T00:15:23.081Z,91.00
2018-08-11T00:17:49.810Z,91.30
2018-08-11T00:20:16.664Z,91.40
2018-08-11T00:22:43.475Z,91.20
2018-08-11T00:25:11.069Z,91.40
2018-08-11T00:27:37.908Z,91.40
2018-08-11T00:30:04.829Z,91.80
2018-08-11T00:32:32.308Z,91.80
2018-08-11T00:34:59.013Z,91.80
2018-08-11T00:37:25.763Z,92.30
2018-08-11T00:39:52.638Z,92.40
2018-08-11T00:42:19.475Z,92.50
2018-08-11T00:44:46.349Z,92.70
2018-08-11T00:47:13.674Z,92.70
2018-08-11T00:49:40.496Z,92.80
2018-08-11T00:52:08.077Z,93.20
2018-08-11T00:54:36.767Z,93.20
2018-08-11T00:57:04.571Z,93.40
2018-08-11T00:59:31.371Z,93.50
2018-08-11T01:01:58.111Z,93.60
2018-08-11T01:04:24.950Z,93.60
2018-08-11T01:06:51.795Z,93.80
2018-08-11T01:09:18.744Z,93.90
2018-08-11T01:11:45.481Z,94.20
2018-08-11T01:14:12.324Z,94.30
2018-08-11T01:16:39.171Z,94.30
2018-08-11T01:19:06.117Z,94.30
2018-08-11T01:21:32.855Z,94.50
2018-08-11T01:23:59.567Z,94.40
2018-08-11T01:26:26.319Z,94.50
2018-08-11T01:28:53.076Z,94.70
2018-08-11T01:31:19.813Z,95.00
2018-08-11T01:33:46.758Z,94.80
2018-08-11T01:36:13.499Z,94.90
2018-08-11T01:41:14.557Z,95.20
2018-08-11T01:43:41.297Z,94.80
2018-08-11T01:46:08.038Z,94.90
2018-08-11T01:48:34.881Z,95.00
2018-08-11T01:51:01.621Z,95.10
2018-08-11T01:53:28.464Z,95.00
2018-08-11T01:55:55.309Z,95.20
2018-08-11T01:58:22.021Z,95.30
2018-08-11T02:00:49.538Z,95.50
2018-08-11T02:03:16.330Z,95.50
2018-08-11T02:05:43.087Z,95.60
2018-08-11T02:08:09.824Z,96.00
2018-08-11T02:10:36.543Z,95.90
2018-08-11T02:13:03.295Z,95.90
2018-08-11T02:15:29.987Z,96.10
2018-08-11T02:17:56.789Z,96.30
2018-08-11T02:20:38.581Z,96.40
2018-08-11T02:23:05.425Z,96.60
2018-08-11T02:25:32.372Z,96.80
2018-08-11T02:27:59.193Z,97.00
2018-08-11T02:30:25.954Z,97.10
2018-08-11T02:32:52.703Z,97.30
2018-08-11T02:35:20.444Z,97.40
2018-08-11T02:37:47.196Z,97.60
2018-08-11T02:40:14.017Z,97.80
2018-08-11T02:42:41.590Z,98.30
2018-08-11T02:45:08.308Z,98.30
2018-08-11T02:47:35.290Z,98.30
2018-08-11T02:50:02.129Z,98.50
2018-08-11T02:52:28.972Z,98.70
2018-08-11T02:54:55.817Z,99.10
2018-08-11T02:57:22.757Z,99.10
2018-08-11T02:59:49.580Z,99.10
2018-08-11T03:02:16.380Z,99.30
2018-08-11T03:04:43.285Z,99.40
2018-08-11T03:07:09.952Z,99.50
2018-08-11T03:09:36.772Z,99.70
2018-08-11T03:12:03.711Z,99.80
2018-08-11T03:14:30.556Z,99.90
2018-08-11T03:16:57.341Z,99.90
2018-08-11T03:19:24.241Z,99.90
2018-08-11T03:21:50.982Z,99.90
2018-08-11T03:24:17.821Z,99.90
2018-08-11T03:26:45.591Z,99.90
2018-08-11T03:29:12.535Z,99.90
2018-08-11T03:31:39.273Z,99.90
2018-08-11T03:34:06.100Z,99.90
2018-08-11T03:36:33.859Z,99.90
2018-08-11T03:39:01.544Z,99.90
2018-08-11T03:41:28.485Z,99.90
2018-08-11T03:43:55.228Z,99.90
2018-08-11T03:46:22.173Z,99.90
2018-08-11T03:48:49.019Z,99.90
2018-08-11T03:51:15.858Z,99.90
2018-08-11T03:53:42.553Z,99.90
2018-08-11T03:56:09.442Z,99.90
2018-08-11T03:58:36.387Z,99.90
2018-08-11T04:01:03.330Z,99.90
2018-08-11T04:03:30.071Z,99.90
2018-08-11T04:05:56.967Z,99.90
2018-08-11T04:08:23.732Z,99.90
2018-08-11T04:10:51.242Z,99.90
2018-08-11T04:13:18.159Z,99.90
2018-08-11T04:15:44.900Z,99.90
2018-08-11T04:18:11.741Z,99.90
2018-08-11T04:20:38.586Z,99.90
2018-08-11T04:23:05.638Z,99.90
2018-08-11T04:25:32.396Z,99.90
2018-08-11T04:27:59.615Z,99.90
2018-08-11T04:30:26.467Z,99.90
2018-08-11T04:32:53.286Z,99.90
2018-08-11T04:35:20.156Z,99.90
2018-08-11T04:37:47.600Z,99.90
2018-08-11T04:40:14.330Z,99.90
2018-08-11T04:42:41.386Z,99.90
2018-08-11T04:45:10.435Z,99.90
2018-08-11T04:47:37.235Z,99.90
2018-08-11T04:50:06.128Z,99.90
2018-08-11T04:52:33.995Z,99.90
2018-08-11T04:55:01.654Z,99.40
2018-08-11T04:57:28.370Z,99.40
2018-08-11T04:59:58.181Z,95.40
2018-08-11T05:02:25.157Z,90.70
2018-08-11T05:04:52.107Z,85.00
2018-08-11T05:07:19.863Z,75.30
2018-08-11T05:09:48.502Z,75.10
2018-08-11T05:12:15.494Z,72.50
2018-08-11T05:14:42.213Z,68.70
2018-08-11T05:17:09.894Z,67.00
2018-08-11T05:19:36.950Z,67.00
2018-08-11T05:22:04.000Z,64.30
2018-08-11T05:24:31.641Z,65.30
2018-08-11T05:26:58.348Z,65.20
2018-08-11T05:29:25.844Z,63.10
2018-08-11T05:31:52.722Z,63.10
2018-08-11T05:34:19.439Z,58.60
2018-08-11T05:36:47.087Z,58.10
2018-08-11T05:39:13.938Z,58.20
2018-08-11T05:41:41.232Z,57.30
2018-08-11T05:44:08.915Z,57.80
2018-08-11T05:46:36.385Z,59.80
2018-08-11T05:49:03.336Z,59.90
2018-08-11T05:51:30.835Z,56.50
2018-08-11T05:53:57.537Z,56.40
2018-08-11T05:56:25.069Z,56.20
2018-08-11T05:58:51.759Z,56.20
2018-08-11T06:01:18.595Z,54.40
2018-08-11T06:03:45.302Z,51.60
2018-08-11T06:06:12.749Z,53.10
2018-08-11T06:08:39.470Z,53.00
2018-08-11T06:11:06.137Z,51.50
2018-08-11T06:13:33.599Z,51.50
2018-08-11T06:16:00.342Z,51.50
2018-08-11T06:18:27.866Z,50.50
2018-08-11T06:20:54.550Z,50.40
2018-08-11T06:23:21.220Z,50.30
2018-08-11T06:25:47.949Z,50.90
2018-08-11T06:28:14.632Z,51.90
2018-08-11T06:30:41.338Z,53.10
2018-08-11T06:33:08.058Z,54.40
2018-08-11T06:35:34.724Z,52.10
2018-08-11T06:38:01.427Z,50.90
2018-08-11T06:40:28.267Z,49.40
2018-08-11T06:42:54.928Z,49.40
2018-08-11T06:45:21.712Z,51.10
2018-08-11T06:47:48.440Z,50.30
2018-08-11T06:50:15.097Z,50.20
2018-08-11T06:52:42.460Z,50.50
2018-08-11T06:55:09.215Z,51.80
2018-08-11T06:57:36.622Z,49.10
2018-08-11T07:00:03.379Z,49.20
2018-08-11T07:02:30.094Z,49.50
2018-08-11T07:04:56.823Z,49.30
2018-08-11T07:07:23.511Z,47.70
2018-08-11T07:09:50.205Z,48.10
2018-08-11T07:12:17.002Z,47.70
2018-08-11T07:14:44.411Z,47.80
2018-08-11T07:17:11.865Z,46.80
2018-08-11T07:19:38.621Z,46.80
2018-08-11T07:22:05.407Z,47.70
2018-08-11T07:24:32.108Z,46.10
2018-08-11T07:26:58.797Z,46.70
2018-08-11T07:29:26.205Z,48.00
2018-08-11T07:31:53.044Z,48.00
2018-08-11T07:34:20.486Z,45.50
2018-08-11T07:36:48.056Z,45.40
2018-08-11T07:39:15.519Z,48.10
2018-08-11T07:41:42.331Z,49.50
2018-08-11T07:44:09.682Z,47.90
2018-08-11T07:46:36.615Z,47.60
2018-08-11T07:49:03.326Z,47.70
2018-08-11T07:51:30.750Z,46.50
2018-08-11T07:53:58.290Z,47.60
2018-08-11T07:56:25.026Z,47.60
2018-08-11T07:58:51.744Z,45.90
2018-08-11T08:01:18.517Z,43.90
2018-08-11T08:03:45.326Z,42.70
2018-08-11T08:06:12.023Z,43.00
2018-08-11T08:08:39.736Z,44.70
2018-08-11T08:11:07.539Z,44.20
2018-08-11T08:13:35.086Z,44.10
2018-08-11T08:16:01.990Z,43.90
2018-08-11T08:18:28.636Z,44.00
2018-08-11T08:20:56.065Z,45.60
2018-08-11T08:23:23.604Z,44.70
2018-08-11T08:25:50.305Z,44.80
2018-08-11T08:28:17.059Z,44.90
2018-08-11T08:30:44.055Z,44.40
2018-08-11T08:33:11.557Z,43.00
2018-08-11T08:35:38.261Z,43.10
2018-08-11T08:38:05.341Z,44.10
2018-08-11T08:40:32.093Z,42.70
2018-08-11T08:42:59.921Z,45.00
2018-08-11T08:45:27.734Z,45.20
2018-08-11T08:47:54.417Z,45.20
2018-08-11T08:50:23.018Z,45.50
2018-08-11T08:52:49.790Z,45.40
2018-08-11T08:55:16.550Z,46.30
2018-08-11T08:57:43.202Z,44.70
2018-08-11T09:00:09.966Z,48.20
2018-08-11T09:02:37.369Z,48.80
2018-08-11T09:05:04.130Z,48.80
2018-08-11T09:07:31.617Z,49.20
2018-08-11T09:09:59.526Z,49.30
2018-08-11T09:12:27.076Z,52.80
2018-08-11T09:14:54.070Z,52.80
2018-08-11T09:17:21.512Z,52.90
2018-08-11T09:19:49.147Z,52.90
2018-08-11T09:22:15.867Z,53.30
2018-08-11T09:24:42.752Z,55.70
2018-08-11T09:27:10.102Z,55.60
2018-08-11T09:29:37.708Z,56.20
2018-08-11T09:32:05.409Z,57.20
2018-08-11T09:34:33.401Z,56.80
2018-08-11T09:37:01.299Z,56.80
2018-08-11T09:39:28.174Z,55.70
2018-08-11T09:41:54.853Z,57.60
2018-08-11T09:44:21.521Z,57.40
2018-08-11T09:46:48.404Z,57.20
2018-08-11T09:49:15.090Z,58.00
2018-08-11T09:51:41.758Z,56.90
2018-08-11T09:54:09.237Z,58.20
2018-08-11T09:56:35.979Z,58.20
2018-08-11T09:59:03.528Z,57.90
2018-08-11T10:01:30.313Z,58.00
2018-08-11T10:03:57.120Z,56.40
2018-08-11T10:06:23.941Z,57.20
2018-08-11T10:08:50.703Z,57.80
2018-08-11T10:11:17.534Z,57.30
2018-08-11T10:13:44.264Z,56.60
2018-08-11T10:16:12.734Z,56.90
2018-08-11T10:18:40.246Z,56.80
2018-08-11T10:21:06.964Z,57.90
2018-08-11T10:23:33.659Z,58.30
2018-08-11T10:26:00.421Z,57.40
2018-08-11T10:28:28.032Z,57.00
2018-08-11T10:30:54.721Z,57.40
2018-08-11T10:33:21.498Z,57.50
2018-08-11T10:35:48.231Z,57.40
2018-08-11T10:38:15.072Z,56.50
2018-08-11T10:40:41.751Z,57.20
2018-08-11T10:43:08.463Z,56.80
2018-08-11T10:45:35.292Z,56.20
2018-08-11T10:48:01.949Z,56.20
2018-08-11T10:50:28.636Z,57.10
2018-08-11T10:52:56.141Z,56.30
2018-08-11T11:01:14.368Z,58.20
2018-08-11T11:03:42.092Z,56.20
2018-08-11T11:06:08.853Z,56.20
2018-08-11T11:08:35.664Z,56.80
2018-08-11T11:11:02.414Z,57.30
2018-08-11T11:13:29.185Z,57.00
2018-08-11T11:15:55.859Z,57.80
2018-08-11T11:18:23.257Z,57.00
2018-08-11T11:20:50.102Z,56.90
2018-08-11T11:23:16.887Z,57.00
2018-08-11T11:25:44.305Z,57.80
2018-08-11T11:28:11.276Z,57.80
2018-08-11T11:30:38.031Z,55.70
2018-08-11T11:33:05.830Z,54.70
2018-08-11T11:35:33.932Z,55.30
2018-08-11T11:38:02.165Z,55.30
2018-08-11T11:40:29.023Z,55.90
2018-08-11T11:42:55.725Z,55.20
2018-08-11T11:45:23.022Z,56.10
2018-08-11T11:47:51.746Z,55.80
2018-08-11T11:50:18.519Z,54.50
2018-08-11T11:52:45.185Z,55.30
2018-08-11T11:55:12.539Z,55.70
2018-08-11T11:57:39.391Z,54.50
2018-08-11T12:00:06.074Z,54.30
2018-08-11T12:02:34.510Z,54.80
2018-08-11T12:05:01.285Z,54.80
2018-08-11T12:07:28.789Z,55.80
2018-08-11T12:09:55.510Z,54.80
2018-08-11T12:12:22.575Z,54.10
2018-08-11T12:14:50.759Z,52.80
2018-08-11T12:17:17.555Z,52.80
2018-08-11T12:19:44.850Z,52.50
2018-08-11T12:22:12.663Z,54.20
2018-08-11T12:24:40.951Z,54.70
2018-08-11T12:27:07.687Z,54.70
2018-08-11T12:29:35.152Z,54.20
2018-08-11T12:32:01.873Z,53.50
2018-08-11T12:34:28.665Z,54.70
2018-08-11T12:36:56.119Z,54.50
2018-08-11T12:39:23.152Z,54.50
2018-08-11T12:41:50.043Z,53.80
2018-08-11T12:44:17.034Z,53.00
2018-08-11T12:46:43.757Z,53.10
2018-08-11T12:49:10.645Z,52.70
2018-08-11T12:51:37.460Z,53.90
2018-08-11T12:54:04.910Z,52.50
2018-08-11T12:56:31.840Z,52.50
2018-08-11T12:58:58.572Z,52.40
2018-08-11T13:01:25.544Z,51.50
2018-08-11T13:03:52.699Z,53.00
2018-08-11T13:06:20.283Z,53.50
2018-08-11T13:08:47.048Z,53.40
2018-08-11T13:11:13.827Z,53.80
2018-08-11T13:13:41.642Z,54.80
2018-08-11T13:16:08.371Z,55.40
2018-08-11T13:18:35.958Z,55.10
2018-08-11T13:21:02.962Z,55.00
2018-08-11T13:23:30.488Z,55.30
2018-08-11T13:25:57.974Z,54.80
2018-08-11T13:28:25.473Z,55.00
2018-08-11T13:30:53.107Z,55.00
2018-08-11T13:33:20.121Z,55.70
2018-08-11T13:35:47.666Z,54.20
2018-08-11T13:38:14.667Z,54.30
2018-08-11T13:40:42.025Z,54.90
2018-08-11T13:43:09.177Z,54.10
2018-08-11T13:45:36.941Z,54.60
2018-08-11T13:48:04.184Z,55.90
2018-08-11T13:50:30.957Z,55.00
2018-08-11T13:52:57.787Z,55.20
2018-08-11T13:55:24.696Z,56.00
2018-08-11T13:57:51.589Z,57.50
2018-08-11T14:00:18.326Z,57.80
2018-08-11T14:02:46.657Z,55.80
2018-08-11T14:05:13.929Z,55.80
2018-08-11T14:07:41.042Z,56.10
2018-08-11T14:10:08.378Z,57.00
2018-08-11T14:12:35.724Z,55.50
2018-08-11T14:15:02.900Z,55.40
2018-08-11T14:17:30.367Z,55.30
2018-08-11T14:19:58.362Z,56.40
2018-08-11T14:22:26.432Z,56.80
2018-08-11T14:24:53.266Z,56.60
2018-08-11T14:27:21.021Z,55.40
2018-08-11T14:29:47.792Z,55.80
2018-08-11T14:32:14.490Z,57.30
2018-08-11T14:34:42.553Z,57.10
2018-08-11T14:37:09.750Z,57.00
2018-08-11T14:39:38.950Z,55.80
2018-08-11T14:42:06.613Z,55.80
2018-08-11T14:44:33.840Z,55.60
2018-08-11T14:47:01.596Z,56.40
2018-08-11T14:49:28.297Z,55.80
2018-08-11T14:51:55.959Z,55.70
2018-08-11T14:54:23.282Z,55.70
2018-08-11T14:56:50.124Z,56.30
2018-08-11T14:59:19.018Z,56.00
2018-08-11T15:01:45.720Z,55.90
2018-08-11T15:04:13.625Z,55.90
2018-08-11T15:06:42.001Z,55.60
2018-08-11T15:09:09.239Z,55.60
2018-08-11T15:11:38.026Z,56.00
2018-08-11T15:14:04.938Z,54.90
2018-08-11T15:16:31.920Z,54.70
2018-08-11T15:18:59.608Z,55.40
2018-08-11T15:21:30.402Z,54.20
2018-08-11T15:23:57.411Z,54.70
2018-08-11T15:26:24.933Z,54.60
2018-08-11T15:28:51.801Z,54.60
2018-08-11T15:31:18.575Z,55.30
2018-08-11T15:33:46.001Z,56.70
2018-08-11T15:36:13.432Z,56.70
2018-08-11T15:38:41.412Z,55.80
2018-08-11T15:41:08.149Z,55.80
2018-08-11T15:43:34.885Z,56.60
2018-08-11T15:46:01.591Z,57.20
2018-08-11T15:48:29.287Z,57.60
2018-08-11T15:50:57.074Z,57.20
2018-08-11T15:53:24.534Z,57.10
2018-08-11T15:55:52.321Z,56.30
2018-08-11T15:58:19.290Z,56.20
2018-08-11T16:00:46.747Z,56.50
2018-08-11T16:03:14.287Z,56.70
2018-08-11T16:05:41.028Z,56.60
2018-08-11T16:08:07.680Z,56.40
2018-08-11T16:10:35.121Z,56.80
2018-08-11T16:13:01.826Z,56.80
2018-08-11T16:15:28.648Z,57.10
2018-08-11T16:17:55.355Z,57.60
2018-08-11T16:20:22.029Z,57.60
2018-08-11T16:22:48.878Z,58.30
2018-08-11T16:25:15.646Z,58.10
2018-08-11T16:27:42.332Z,58.70
2018-08-11T16:30:09.817Z,59.10
2018-08-11T16:32:36.851Z,59.00
2018-08-11T16:35:03.567Z,59.10
2018-08-11T16:37:30.239Z,59.40
2018-08-11T16:39:57.165Z,60.50
2018-08-11T16:42:27.020Z,61.40
2018-08-11T16:44:54.621Z,62.30
2018-08-11T16:47:22.087Z,63.60
2018-08-11T16:49:49.590Z,62.90
2018-08-11T16:52:16.304Z,62.90
2018-08-11T16:54:44.293Z,67.90
2018-08-11T16:57:11.061Z,68.00
2018-08-11T16:59:38.056Z,71.50
2018-08-11T17:02:06.191Z,76.40
2018-08-11T17:04:33.195Z,76.30
2018-08-11T17:07:01.364Z,77.10
2018-08-11T17:09:29.602Z,77.40
2018-08-11T17:11:59.645Z,77.80
2018-08-11T17:14:26.623Z,77.90
2018-08-11T17:16:54.066Z,78.60
2018-08-11T17:19:21.417Z,78.60
2018-08-11T17:21:49.365Z,78.70
2018-08-11T17:24:16.879Z,78.30
2018-08-11T17:26:43.515Z,78.20
2018-08-11T17:29:10.223Z,78.40
2018-08-11T17:31:36.910Z,77.60
2018-08-11T17:34:03.621Z,77.00
2018-08-11T17:36:30.486Z,76.90
2018-08-11T17:38:57.798Z,76.40
2018-08-11T17:41:24.948Z,76.50
2018-08-11T17:43:51.671Z,77.00
2018-08-11T17:46:18.899Z,77.80
2018-08-11T17:48:46.587Z,79.20
2018-08-11T17:51:13.756Z,79.20
2018-08-11T17:53:42.935Z,82.20
2018-08-11T17:56:09.796Z,82.20
2018-08-11T17:58:36.743Z,83.20
2018-08-11T18:01:04.711Z,85.20
2018-08-11T18:03:32.004Z,85.20
2018-08-11T18:05:58.723Z,85.90
2018-08-11T18:08:25.543Z,87.00
2018-08-11T18:10:52.393Z,86.90
2018-08-11T18:13:19.131Z,87.10
2018-08-11T18:15:45.946Z,87.90
2018-08-11T18:18:12.792Z,88.00
2018-08-11T18:20:40.274Z,89.30
2018-08-11T18:23:07.355Z,90.00
2018-08-11T18:25:34.856Z,89.40
2018-08-11T18:28:03.521Z,90.00
2018-08-11T18:30:32.765Z,90.20
2018-08-11T18:32:59.814Z,90.50
2018-08-11T18:35:27.147Z,90.50
2018-08-11T18:37:55.748Z,91.10
2018-08-11T18:40:22.901Z,91.10
2018-08-11T18:42:49.749Z,91.40
2018-08-11T18:45:16.607Z,91.70
2018-08-11T18:47:43.349Z,92.00
2018-08-11T18:50:10.273Z,92.30
2018-08-11T18:52:37.318Z,92.70
2018-08-11T18:55:04.160Z,93.70
2018-08-11T18:57:31.004Z,93.80
2018-08-11T18:59:57.949Z,94.90
2018-08-11T19:02:24.663Z,94.80
2018-08-11T19:04:52.352Z,96.20
2018-08-11T19:07:20.423Z,97.20
2018-08-11T19:09:47.472Z,97.10
2018-08-11T19:12:14.139Z,97.20
2018-08-11T19:14:40.851Z,97.80
2018-08-11T19:17:07.562Z,97.80
2018-08-11T19:19:34.270Z,98.50
2018-08-11T19:22:01.008Z,98.90
2018-08-11T19:24:27.713Z,99.50
2018-08-11T19:26:54.388Z,99.70
2018-08-11T19:29:21.293Z,99.90
2018-08-11T19:31:48.135Z,99.90
2018-08-11T19:34:14.984Z,99.90
2018-08-11T19:36:41.821Z,99.90
2018-08-11T19:39:08.561Z,99.90
2018-08-11T19:41:35.281Z,99.90
2018-08-11T19:44:02.865Z,99.90
2018-08-11T19:46:29.653Z,99.90
2018-08-11T19:48:57.541Z,99.90
2018-08-11T19:51:25.027Z,99.90
2018-08-11T19:53:53.599Z,99.90
2018-08-11T19:56:20.658Z,99.90
2018-08-11T19:58:49.020Z,99.90
2018-08-11T20:01:15.756Z,99.90
2018-08-11T20:03:44.055Z,99.90
2018-08-11T20:06:12.279Z,99.90
2018-08-11T20:08:40.097Z,99.90
2018-08-11T20:11:07.143Z,99.90
2018-08-11T20:13:34.191Z,99.90
2018-08-11T20:16:01.033Z,99.90
2018-08-11T20:18:27.876Z,99.90
2018-08-11T20:21:02.296Z,99.90
2018-08-11T20:23:29.243Z,99.90
2018-08-11T20:25:56.068Z,99.90
2018-08-11T20:28:22.928Z,99.90
2018-08-11T20:30:51.068Z,99.90
2018-08-11T20:33:18.666Z,99.90
2018-08-11T20:35:45.504Z,99.90
2018-08-11T20:38:12.348Z,99.90
2018-08-11T20:40:39.519Z,99.90
2018-08-11T20:43:06.340Z,99.90
2018-08-11T20:45:33.083Z,99.90
2018-08-11T20:48:00.137Z,99.90
2018-08-11T20:50:27.895Z,99.90
2018-08-11T20:52:54.940Z,99.90
2018-08-11T20:55:21.784Z,99.90
2018-08-11T20:57:48.525Z,99.90
2018-08-11T21:00:15.472Z,99.90
2018-08-11T21:02:42.433Z,99.90
2018-08-11T21:05:10.221Z,99.90
2018-08-11T21:07:37.122Z,99.90
2018-08-11T21:10:04.978Z,99.90
2018-08-11T21:12:32.149Z,99.90
2018-08-11T21:14:59.599Z,99.90
2018-08-11T21:17:28.212Z,99.90
2018-08-11T21:19:55.027Z,99.90
2018-08-11T21:22:23.203Z,99.90
2018-08-11T21:24:51.271Z,99.90
2018-08-11T21:27:19.522Z,99.90
2018-08-11T21:29:49.548Z,99.90
2018-08-11T21:32:17.328Z,99.90
2018-08-11T21:34:46.383Z,99.90
2018-08-11T21:37:14.695Z,99.90
2018-08-11T21:39:41.727Z,99.90
2018-08-11T21:42:09.545Z,99.90
2018-08-11T21:44:37.277Z,99.90
2018-08-11T21:47:04.330Z,99.90
2018-08-11T21:49:32.197Z,99.90
2018-08-11T21:52:00.452Z,99.90
2018-08-11T21:54:29.567Z,99.90
2018-08-11T21:56:57.388Z,99.90
2018-08-11T21:59:24.787Z,99.90
2018-08-11T22:01:52.860Z,99.90
2018-08-11T22:04:20.932Z,99.90
2018-08-11T22:06:47.872Z,99.90
2018-08-11T22:09:15.330Z,99.90
2018-08-11T22:11:44.024Z,99.90
2018-08-11T22:14:12.155Z,99.90
2018-08-11T22:16:42.046Z,99.90
2018-08-11T22:19:09.664Z,99.90
2018-08-11T22:21:37.540Z,99.90
2018-08-11T22:24:07.232Z,99.90
2018-08-11T22:26:34.698Z,99.90
2018-08-11T22:29:01.751Z,99.90
2018-08-11T22:31:29.309Z,99.90
2018-08-11T22:33:56.252Z,99.90
2018-08-11T22:36:23.638Z,99.90
2018-08-11T22:38:53.635Z,99.90
2018-08-11T22:41:20.468Z,99.90
2018-08-11T22:43:47.516Z,99.90
2018-08-11T22:46:14.361Z,99.90
2018-08-11T22:48:41.013Z,99.90
2018-08-11T22:51:07.837Z,99.90
2018-08-11T22:53:34.684Z,99.90
2018-08-11T22:56:01.727Z,99.90
2018-08-11T22:58:28.675Z,99.90
2018-08-11T23:00:57.259Z,99.90
2018-08-11T23:03:26.149Z,99.90
2018-08-11T23:05:53.812Z,99.90
2018-08-11T23:08:20.757Z,99.90
2018-08-11T23:10:47.599Z,99.90
2018-08-11T23:13:14.600Z,99.90
2018-08-11T23:15:42.209Z,99.90
2018-08-11T23:18:09.357Z,99.90
2018-08-11T23:20:37.000Z,99.90
2018-08-11T23:23:04.578Z,99.90
2018-08-11T23:25:32.587Z,99.90
2018-08-11T23:28:00.016Z,99.90
2018-08-11T23:30:26.719Z,99.90
2018-08-11T23:32:55.646Z,99.90
2018-08-11T23:35:23.198Z,99.90
2018-08-11T23:37:50.143Z,99.90
2018-08-11T23:40:16.982Z,99.90
2018-08-11T23:42:43.911Z,99.90
2018-08-11T23:45:11.283Z,99.90
2018-08-11T23:47:39.131Z,99.90
2018-08-11T23:50:06.277Z,99.90
2018-08-11T23:52:34.270Z,99.90
2018-08-11T23:55:01.828Z,99.90
2018-08-11T23:57:31.157Z,99.90
2018-08-11T23:59:58.996Z,99.90
